DEXXA EDLN-EDRK
Flight info
| Callsign | DEXXA |
|---|---|
| Flight time | N/A |
| Altitude | 3100 |
| Route | VFR |
| Aircraft | P28R/L-V/N |
Departure
| Time | 2026-04-27 12:49 |
|---|---|
| Airport | Mönchengladbach Airport (EDLN) |
Arrival
| Time | N/A |
|---|---|
| Airport | Koblenz-Winningen Airfield (EDRK) |
| Time | Latitude | Longitude | Altitude | Speed | Heading |
|---|---|---|---|---|---|
| 2026-04-27 12:33 | 51.23265 | 6.49577 | 124 ft | 0 kts | 105° |
| 2026-04-27 12:46 | 51.23270 | 6.49626 | 124 ft | 8 kts | 63° |
| 2026-04-27 12:47 | 51.23297 | 6.49695 | 125 ft | 0 kts | 47° |
| 2026-04-27 12:47 | 51.23298 | 6.49697 | 125 ft | 0 kts | 44° |
| 2026-04-27 12:48 | 51.23307 | 6.49707 | 125 ft | 3 kts | 33° |
| 2026-04-27 12:48 | 51.23342 | 6.49759 | 125 ft | 9 kts | 47° |
| 2026-04-27 12:48 | 51.23356 | 6.49803 | 125 ft | 6 kts | 99° |
| 2026-04-27 12:48 | 51.23334 | 6.49853 | 125 ft | 10 kts | 127° |
| 2026-04-27 12:49 | 51.23138 | 6.50245 | 125 ft | 73 kts | 129° |
| 2026-04-27 12:49 | 51.22781 | 6.50920 | 345 ft | 79 kts | 133° |
| 2026-04-27 12:49 | 51.22371 | 6.51592 | 564 ft | 92 kts | 131° |
| 2026-04-27 12:49 | 51.21895 | 6.52357 | 744 ft | 103 kts | 149° |
| 2026-04-27 12:50 | 51.21175 | 6.52461 | 939 ft | 110 kts | 183° |
| 2026-04-27 12:50 | 51.20594 | 6.51778 | 1111 ft | 114 kts | 245° |
| 2026-04-27 12:50 | 51.20496 | 6.50526 | 1288 ft | 114 kts | 284° |
| 2026-04-27 12:50 | 51.20916 | 6.49470 | 1425 ft | 113 kts | 319° |
| 2026-04-27 12:51 | 51.21051 | 6.48314 | 1580 ft | 108 kts | 253° |
| 2026-04-27 12:51 | 51.20526 | 6.47440 | 1360 ft | 115 kts | 212° |
| 2026-04-27 12:51 | 51.19860 | 6.46889 | 1326 ft | 105 kts | 203° |
| 2026-04-27 12:51 | 51.19169 | 6.46414 | 1290 ft | 106 kts | 197° |
| 2026-04-27 12:52 | 51.18471 | 6.46121 | 1296 ft | 105 kts | 192° |
| 2026-04-27 12:52 | 51.17761 | 6.45799 | 1298 ft | 104 kts | 194° |
| 2026-04-27 12:52 | 51.17092 | 6.45362 | 1292 ft | 105 kts | 205° |
| 2026-04-27 12:52 | 51.16443 | 6.44910 | 1310 ft | 103 kts | 198° |
| 2026-04-27 12:53 | 51.15127 | 6.44029 | 1327 ft | 102 kts | 210° |
| 2026-04-27 12:53 | 51.14547 | 6.43377 | 1314 ft | 104 kts | 211° |
| 2026-04-27 12:53 | 51.13874 | 6.42971 | 1304 ft | 101 kts | 188° |
| 2026-04-27 12:54 | 51.13183 | 6.42852 | 1269 ft | 102 kts | 178° |
| 2026-04-27 12:54 | 51.12462 | 6.42906 | 1211 ft | 107 kts | 173° |
| 2026-04-27 12:54 | 51.11700 | 6.43015 | 1216 ft | 111 kts | 176° |
| 2026-04-27 12:54 | 51.10919 | 6.42965 | 1257 ft | 111 kts | 184° |
| 2026-04-27 12:55 | 51.10165 | 6.42722 | 1280 ft | 112 kts | 189° |
| 2026-04-27 12:55 | 51.09487 | 6.42898 | 1358 ft | 100 kts | 130° |
| 2026-04-27 12:55 | 51.09193 | 6.43825 | 1453 ft | 87 kts | 78° |
| 2026-04-27 12:55 | 51.09684 | 6.44126 | 1509 ft | 92 kts | 330° |
| 2026-04-27 12:56 | 51.09816 | 6.43095 | 1391 ft | 114 kts | 254° |
| 2026-04-27 12:56 | 51.09300 | 6.42158 | 1328 ft | 113 kts | 198° |
| 2026-04-27 12:56 | 51.08605 | 6.42458 | 1256 ft | 111 kts | 134° |
| 2026-04-27 12:56 | 51.08047 | 6.43274 | 1289 ft | 105 kts | 139° |
| 2026-04-27 12:57 | 51.07471 | 6.44045 | 1217 ft | 110 kts | 137° |
| 2026-04-27 12:57 | 51.06878 | 6.44762 | 1244 ft | 106 kts | 141° |
| 2026-04-27 12:57 | 51.06267 | 6.45435 | 1262 ft | 105 kts | 145° |
| 2026-04-27 12:57 | 51.05624 | 6.46061 | 1224 ft | 109 kts | 148° |
| 2026-04-27 12:58 | 51.04960 | 6.46649 | 1233 ft | 109 kts | 145° |
| 2026-04-27 12:58 | 51.04307 | 6.47258 | 1256 ft | 107 kts | 149° |
| 2026-04-27 12:58 | 51.03666 | 6.47835 | 1237 ft | 109 kts | 150° |
| 2026-04-27 12:58 | 51.03017 | 6.48393 | 1281 ft | 105 kts | 140° |
| 2026-04-27 12:59 | 51.02431 | 6.49134 | 1253 ft | 106 kts | 137° |
| 2026-04-27 12:59 | 51.01907 | 6.49963 | 1193 ft | 110 kts | 124° |
| 2026-04-27 12:59 | 51.01373 | 6.50811 | 1190 ft | 109 kts | 140° |
| 2026-04-27 12:59 | 51.00808 | 6.51604 | 1182 ft | 107 kts | 127° |
| 2026-04-27 13:00 | 51.00426 | 6.52612 | 1147 ft | 107 kts | 116° |
| 2026-04-27 13:00 | 51.00128 | 6.53671 | 1161 ft | 104 kts | 109° |
| 2026-04-27 13:00 | 50.99749 | 6.54652 | 1162 ft | 104 kts | 127° |
| 2026-04-27 13:00 | 50.99177 | 6.55326 | 1188 ft | 105 kts | 157° |
| 2026-04-27 13:01 | 50.98467 | 6.55671 | 1161 ft | 108 kts | 159° |
| 2026-04-27 13:01 | 50.97748 | 6.56088 | 1142 ft | 109 kts | 152° |
| 2026-04-27 13:01 | 50.97075 | 6.56608 | 1143 ft | 107 kts | 150° |
| 2026-04-27 13:01 | 50.96429 | 6.57217 | 1123 ft | 108 kts | 142° |
| 2026-04-27 13:02 | 50.95854 | 6.57969 | 1116 ft | 106 kts | 129° |
| 2026-04-27 13:02 | 50.95428 | 6.58920 | 1109 ft | 104 kts | 114° |
| 2026-04-27 13:02 | 50.95151 | 6.59987 | 1088 ft | 105 kts | 110° |
| 2026-04-27 13:02 | 50.94833 | 6.61031 | 1092 ft | 104 kts | 114° |
| 2026-04-27 13:03 | 50.94521 | 6.62068 | 1078 ft | 105 kts | 115° |
| 2026-04-27 13:03 | 50.94200 | 6.63099 | 1075 ft | 104 kts | 113° |
| 2026-04-27 13:03 | 50.93903 | 6.64152 | 1071 ft | 104 kts | 113° |
| 2026-04-27 13:03 | 50.93570 | 6.65184 | 1049 ft | 105 kts | 119° |
| 2026-04-27 13:04 | 50.93153 | 6.66132 | 1051 ft | 105 kts | 127° |
| 2026-04-27 13:04 | 50.92631 | 6.66970 | 1033 ft | 107 kts | 137° |
| 2026-04-27 13:04 | 50.92043 | 6.67665 | 1026 ft | 107 kts | 147° |
| 2026-04-27 13:04 | 50.91382 | 6.68222 | 1018 ft | 107 kts | 152° |
| 2026-04-27 13:05 | 50.90702 | 6.68741 | 1007 ft | 108 kts | 152° |
| 2026-04-27 13:05 | 50.90027 | 6.69246 | 1006 ft | 107 kts | 154° |
| 2026-04-27 13:05 | 50.89327 | 6.69709 | 994 ft | 108 kts | 156° |
| 2026-04-27 13:05 | 50.88624 | 6.70131 | 995 ft | 107 kts | 161° |
| 2026-04-27 13:06 | 50.87898 | 6.70406 | 981 ft | 108 kts | 167° |
| 2026-04-27 13:06 | 50.87156 | 6.70618 | 982 ft | 108 kts | 168° |
| 2026-04-27 13:06 | 50.86434 | 6.70900 | 991 ft | 105 kts | 154° |
| 2026-04-27 13:06 | 50.85818 | 6.71537 | 940 ft | 108 kts | 130° |
| 2026-04-27 13:07 | 50.85313 | 6.72365 | 964 ft | 103 kts | 129° |
| 2026-04-27 13:07 | 50.84918 | 6.73335 | 949 ft | 104 kts | 116° |
| 2026-04-27 13:07 | 50.84666 | 6.74399 | 942 ft | 104 kts | 108° |
| 2026-04-27 13:07 | 50.84423 | 6.75461 | 959 ft | 101 kts | 114° |
| 2026-04-27 13:08 | 50.83915 | 6.76241 | 964 ft | 104 kts | 144° |
| 2026-04-27 13:08 | 50.83283 | 6.76788 | 965 ft | 104 kts | 153° |
| 2026-04-27 13:08 | 50.82637 | 6.77327 | 975 ft | 104 kts | 144° |
| 2026-04-27 13:08 | 50.82064 | 6.78008 | 989 ft | 103 kts | 142° |
| 2026-04-27 13:09 | 50.81491 | 6.78690 | 1009 ft | 102 kts | 142° |
| 2026-04-27 13:09 | 50.80906 | 6.79286 | 1059 ft | 100 kts | 147° |
| 2026-04-27 13:09 | 50.80295 | 6.79827 | 1067 ft | 102 kts | 150° |
| 2026-04-27 13:09 | 50.79672 | 6.80352 | 1098 ft | 101 kts | 155° |
| 2026-04-27 13:10 | 50.78991 | 6.80693 | 1122 ft | 101 kts | 163° |
| 2026-04-27 13:10 | 50.78328 | 6.81053 | 1142 ft | 101 kts | 152° |
| 2026-04-27 13:10 | 50.77774 | 6.81728 | 1158 ft | 100 kts | 134° |
| 2026-04-27 13:10 | 50.77296 | 6.82527 | 1163 ft | 102 kts | 128° |
| 2026-04-27 13:11 | 50.76915 | 6.83447 | 1188 ft | 100 kts | 114° |
| 2026-04-27 13:11 | 50.76532 | 6.84380 | 1178 ft | 103 kts | 134° |
| 2026-04-27 13:11 | 50.75951 | 6.85051 | 1196 ft | 103 kts | 143° |
| 2026-04-27 13:11 | 50.75357 | 6.85701 | 1181 ft | 105 kts | 141° |
| 2026-04-27 13:12 | 50.74818 | 6.86468 | 1197 ft | 103 kts | 129° |
| 2026-04-27 13:12 | 50.74279 | 6.87226 | 1190 ft | 105 kts | 145° |
| 2026-04-27 13:12 | 50.73650 | 6.87789 | 1209 ft | 104 kts | 152° |
| 2026-04-27 13:12 | 50.73008 | 6.88337 | 1209 ft | 105 kts | 147° |
| 2026-04-27 13:13 | 50.72396 | 6.88932 | 1232 ft | 103 kts | 146° |
| 2026-04-27 13:13 | 50.71777 | 6.89515 | 1223 ft | 105 kts | 149° |
| 2026-04-27 13:13 | 50.71102 | 6.89961 | 1234 ft | 105 kts | 160° |
| 2026-04-27 13:13 | 50.70388 | 6.90239 | 1244 ft | 105 kts | 166° |
| 2026-04-27 13:14 | 50.69677 | 6.90496 | 1248 ft | 105 kts | 162° |
| 2026-04-27 13:14 | 50.68996 | 6.90915 | 1255 ft | 104 kts | 152° |
| 2026-04-27 13:14 | 50.68324 | 6.91337 | 1259 ft | 105 kts | 160° |
| 2026-04-27 13:14 | 50.67636 | 6.91737 | 1262 ft | 105 kts | 153° |
| 2026-04-27 13:15 | 50.66939 | 6.92107 | 1250 ft | 108 kts | 171° |
| 2026-04-27 13:15 | 50.66201 | 6.92326 | 1252 ft | 106 kts | 156° |
| 2026-04-27 13:15 | 50.65548 | 6.92872 | 1253 ft | 106 kts | 147° |
| 2026-04-27 13:15 | 50.64940 | 6.93510 | 1253 ft | 106 kts | 142° |
| 2026-04-27 13:16 | 50.64360 | 6.94222 | 1268 ft | 104 kts | 135° |
| 2026-04-27 13:16 | 50.63919 | 6.95122 | 1255 ft | 105 kts | 121° |
| 2026-04-27 13:16 | 50.63533 | 6.96067 | 1282 ft | 102 kts | 119° |
| 2026-04-27 13:16 | 50.63127 | 6.97013 | 1253 ft | 107 kts | 139° |
| 2026-04-27 13:17 | 50.62495 | 6.97622 | 1251 ft | 107 kts | 150° |
| 2026-04-27 13:17 | 50.61833 | 6.98207 | 1220 ft | 108 kts | 147° |
| 2026-04-27 13:17 | 50.61253 | 6.98943 | 1202 ft | 108 kts | 132° |
| 2026-04-27 13:17 | 50.60742 | 6.99811 | 1194 ft | 107 kts | 131° |
| 2026-04-27 13:18 | 50.60225 | 7.00654 | 1188 ft | 106 kts | 126° |
| 2026-04-27 13:18 | 50.59822 | 7.01612 | 1194 ft | 105 kts | 120° |
| 2026-04-27 13:18 | 50.59435 | 7.02604 | 1181 ft | 105 kts | 119° |
| 2026-04-27 13:18 | 50.59052 | 7.03577 | 1195 ft | 104 kts | 118° |
| 2026-04-27 13:19 | 50.58679 | 7.04565 | 1192 ft | 104 kts | 117° |
| 2026-04-27 13:19 | 50.58325 | 7.05556 | 1192 ft | 104 kts | 115° |
| 2026-04-27 13:19 | 50.58012 | 7.06581 | 1205 ft | 103 kts | 111° |
| 2026-04-27 13:19 | 50.57729 | 7.07609 | 1208 ft | 102 kts | 109° |
| 2026-04-27 13:20 | 50.57511 | 7.08678 | 1211 ft | 101 kts | 98° |
| 2026-04-27 13:20 | 50.57410 | 7.09779 | 1344 ft | 103 kts | 96° |
| 2026-04-27 13:20 | 50.57335 | 7.10893 | 1550 ft | 102 kts | 93° |
| 2026-04-27 13:20 | 50.57161 | 7.11975 | 1744 ft | 104 kts | 110° |
| 2026-04-27 13:21 | 50.56767 | 7.12935 | 1924 ft | 106 kts | 128° |
| 2026-04-27 13:21 | 50.56249 | 7.13778 | 2094 ft | 108 kts | 126° |
| 2026-04-27 13:21 | 50.55748 | 7.14686 | 2246 ft | 111 kts | 130° |
| 2026-04-27 13:21 | 50.55254 | 7.15618 | 2392 ft | 110 kts | 127° |
| 2026-04-27 13:22 | 50.54666 | 7.16448 | 2509 ft | 116 kts | 144° |
| 2026-04-27 13:22 | 50.54006 | 7.17135 | 2674 ft | 113 kts | 137° |
| 2026-04-27 13:22 | 50.53455 | 7.18025 | 2797 ft | 114 kts | 130° |
| 2026-04-27 13:22 | 50.52937 | 7.18936 | 2970 ft | 111 kts | 124° |
| 2026-04-27 13:23 | 50.52396 | 7.19837 | 3095 ft | 114 kts | 131° |
| 2026-04-27 13:23 | 50.51878 | 7.20730 | 3215 ft | 108 kts | 128° |
| 2026-04-27 13:23 | 50.51319 | 7.21524 | 3124 ft | 108 kts | 142° |
| 2026-04-27 13:23 | 50.50632 | 7.22062 | 3006 ft | 112 kts | 160° |
| 2026-04-27 13:24 | 50.49868 | 7.22269 | 2932 ft | 110 kts | 168° |
| 2026-04-27 13:24 | 50.49102 | 7.22399 | 2876 ft | 112 kts | 174° |
| 2026-04-27 13:24 | 50.48321 | 7.22497 | 2854 ft | 116 kts | 171° |
| 2026-04-27 13:24 | 50.47504 | 7.22577 | 2847 ft | 117 kts | 175° |
| 2026-04-27 13:25 | 50.46687 | 7.22593 | 2827 ft | 118 kts | 179° |
| 2026-04-27 13:25 | 50.45877 | 7.22481 | 2822 ft | 118 kts | 188° |
| 2026-04-27 13:25 | 50.45064 | 7.22178 | 2804 ft | 119 kts | 194° |
| 2026-04-27 13:25 | 50.44275 | 7.21808 | 2779 ft | 120 kts | 183° |
| 2026-04-27 13:26 | 50.43471 | 7.22095 | 2742 ft | 116 kts | 159° |
| 2026-04-27 13:26 | 50.42698 | 7.22368 | 2756 ft | 115 kts | 168° |
| 2026-04-27 13:26 | 50.41872 | 7.22424 | 2702 ft | 118 kts | 177° |
| 2026-04-27 13:26 | 50.41070 | 7.22555 | 2725 ft | 115 kts | 162° |
| 2026-04-27 13:27 | 50.40355 | 7.23097 | 2695 ft | 113 kts | 142° |
| 2026-04-27 13:27 | 50.39764 | 7.23891 | 2702 ft | 111 kts | 130° |
| 2026-04-27 13:27 | 50.39276 | 7.24824 | 2695 ft | 110 kts | 123° |
| 2026-04-27 13:27 | 50.38841 | 7.25810 | 2682 ft | 110 kts | 118° |
| 2026-04-27 13:28 | 50.38496 | 7.26888 | 2659 ft | 109 kts | 103° |
| 2026-04-27 13:28 | 50.38417 | 7.28050 | 2650 ft | 107 kts | 85° |
| 2026-04-27 13:28 | 50.38542 | 7.29202 | 2648 ft | 106 kts | 73° |
| 2026-04-27 13:28 | 50.38810 | 7.30275 | 2615 ft | 107 kts | 62° |
| 2026-04-27 13:29 | 50.39169 | 7.31291 | 2623 ft | 105 kts | 63° |
| 2026-04-27 13:29 | 50.39340 | 7.32416 | 2595 ft | 108 kts | 82° |
| 2026-04-27 13:29 | 50.39350 | 7.33584 | 2623 ft | 105 kts | 88° |
| 2026-04-27 13:29 | 50.39312 | 7.34741 | 2611 ft | 107 kts | 95° |
| 2026-04-27 13:30 | 50.39102 | 7.35859 | 2602 ft | 109 kts | 112° |
| 2026-04-27 13:30 | 50.38646 | 7.36819 | 2596 ft | 111 kts | 132° |
| 2026-04-27 13:30 | 50.38128 | 7.37659 | 2511 ft | 108 kts | 128° |
| 2026-04-27 13:30 | 50.37760 | 7.38659 | 2360 ft | 104 kts | 104° |
| 2026-04-27 13:31 | 50.37595 | 7.39757 | 2249 ft | 100 kts | 103° |
| 2026-04-27 13:31 | 50.37406 | 7.40800 | 2125 ft | 100 kts | 103° |
| 2026-04-27 13:31 | 50.37218 | 7.41841 | 2027 ft | 99 kts | 99° |
| 2026-04-27 13:31 | 50.37074 | 7.42888 | 1955 ft | 97 kts | 102° |
| 2026-04-27 13:32 | 50.36855 | 7.43892 | 1874 ft | 99 kts | 111° |
| 2026-04-27 13:32 | 50.36499 | 7.44822 | 1775 ft | 100 kts | 108° |
| 2026-04-27 13:32 | 50.36317 | 7.45862 | 1747 ft | 94 kts | 104° |
| 2026-04-27 13:32 | 50.36153 | 7.46880 | 1607 ft | 100 kts | 97° |
| 2026-04-27 13:33 | 50.36015 | 7.47905 | 1596 ft | 92 kts | 100° |
| 2026-04-27 13:33 | 50.35827 | 7.48880 | 1530 ft | 93 kts | 105° |
| 2026-04-27 13:33 | 50.35592 | 7.49805 | 1487 ft | 93 kts | 111° |
| 2026-04-27 13:33 | 50.35290 | 7.50711 | 1450 ft | 93 kts | 117° |
| 2026-04-27 13:34 | 50.34759 | 7.51235 | 1455 ft | 97 kts | 179° |
| 2026-04-27 13:34 | 50.34159 | 7.50753 | 1467 ft | 103 kts | 233° |
| 2026-04-27 13:34 | 50.33764 | 7.49851 | 1514 ft | 101 kts | 231° |
| 2026-04-27 13:34 | 50.33344 | 7.48963 | 1567 ft | 99 kts | 231° |
| 2026-04-27 13:35 | 50.32912 | 7.48116 | 1603 ft | 100 kts | 229° |
| 2026-04-27 13:35 | 50.32466 | 7.47270 | 1638 ft | 99 kts | 228° |
| 2026-04-27 13:35 | 50.32030 | 7.46543 | 1700 ft | 92 kts | 221° |
| 2026-04-27 13:35 | 50.31470 | 7.46318 | 1618 ft | 88 kts | 147° |